createdAt,value
2017-11-30T00:01:07.771Z,94.00
2017-11-30T00:03:35.904Z,94.00
2017-11-30T00:06:04.038Z,94.00
2017-11-30T00:08:32.194Z,94.00
2017-11-30T00:11:00.323Z,94.00
2017-11-30T00:13:29.254Z,93.90
2017-11-30T00:15:57.404Z,93.90
2017-11-30T00:18:26.328Z,93.80
2017-11-30T00:20:54.468Z,93.80
2017-11-30T00:23:23.392Z,93.80
2017-11-30T00:25:51.524Z,93.80
2017-11-30T00:28:20.455Z,93.80
2017-11-30T00:30:48.586Z,93.80
2017-11-30T00:33:17.507Z,93.80
2017-11-30T00:35:45.643Z,93.70
2017-11-30T00:38:13.799Z,93.70
2017-11-30T00:40:41.941Z,93.70
2017-11-30T00:43:21.976Z,93.70
2017-11-30T00:45:50.140Z,93.70
2017-11-30T00:48:18.307Z,93.80
2017-11-30T00:50:46.495Z,93.80
2017-11-30T00:53:14.664Z,93.80
2017-11-30T00:55:42.812Z,93.80
2017-11-30T00:58:10.967Z,93.80
2017-11-30T01:00:39.096Z,93.80
2017-11-30T01:03:07.237Z,93.80
2017-11-30T01:05:35.396Z,93.80
2017-11-30T01:08:03.522Z,93.90
2017-11-30T01:10:31.684Z,93.80
2017-11-30T01:12:59.815Z,93.90
2017-11-30T01:15:27.983Z,93.90
2017-11-30T01:17:56.111Z,93.90
2017-11-30T01:20:24.274Z,93.90
2017-11-30T01:22:52.418Z,93.90
2017-11-30T01:25:20.568Z,93.90
2017-11-30T01:27:48.690Z,94.00
2017-11-30T01:30:16.843Z,94.00
2017-11-30T01:32:44.975Z,94.00
2017-11-30T01:35:13.150Z,94.00
2017-11-30T01:37:41.276Z,94.00
2017-11-30T01:40:09.440Z,94.00
2017-11-30T01:42:37.569Z,94.00
2017-11-30T01:45:05.720Z,94.00
2017-11-30T01:47:33.845Z,94.00
2017-11-30T01:50:01.975Z,94.00
2017-11-30T01:52:30.135Z,93.90
2017-11-30T01:54:58.263Z,94.00
2017-11-30T01:57:26.418Z,94.00
2017-11-30T01:59:54.551Z,94.00
2017-11-30T02:02:22.711Z,94.00
2017-11-30T02:04:50.839Z,94.00
2017-11-30T02:07:18.991Z,94.00
2017-11-30T02:09:47.132Z,94.00
2017-11-30T02:12:15.300Z,94.00
2017-11-30T02:14:43.438Z,94.10
2017-11-30T02:17:11.602Z,94.10
2017-11-30T02:19:39.731Z,94.10
2017-11-30T02:22:07.893Z,94.10
2017-11-30T02:24:36.024Z,94.10
2017-11-30T02:27:04.174Z,94.20
2017-11-30T02:29:32.304Z,94.20
2017-11-30T02:32:01.227Z,94.30
2017-11-30T02:34:29.369Z,94.30
2017-11-30T02:36:58.299Z,94.30
2017-11-30T02:39:26.432Z,94.30
2017-11-30T02:41:54.609Z,94.30
2017-11-30T02:44:22.739Z,94.30
2017-11-30T02:46:50.894Z,94.30
2017-11-30T02:49:19.022Z,94.30
2017-11-30T02:51:47.944Z,94.30
2017-11-30T02:54:16.076Z,94.30
2017-11-30T02:56:44.234Z,94.20
2017-11-30T02:59:12.362Z,94.30
2017-11-30T03:01:40.494Z,94.30
2017-11-30T03:04:08.647Z,94.30
2017-11-30T03:06:36.791Z,94.30
2017-11-30T03:09:04.955Z,94.30
2017-11-30T03:11:33.078Z,94.30
2017-11-30T03:14:01.233Z,94.30
2017-11-30T03:16:29.394Z,94.20
2017-11-30T03:18:57.543Z,94.20
2017-11-30T03:21:25.674Z,94.20
2017-11-30T03:23:53.839Z,94.20
2017-11-30T03:26:21.963Z,94.30
2017-11-30T03:28:50.113Z,94.30
2017-11-30T03:31:18.246Z,94.30
2017-11-30T03:33:46.402Z,94.30
2017-11-30T03:36:14.532Z,94.20
2017-11-30T03:38:43.456Z,94.20
2017-11-30T03:41:11.584Z,94.20
2017-11-30T03:43:39.746Z,94.30
2017-11-30T03:46:07.879Z,94.30
2017-11-30T03:48:36.040Z,94.30
2017-11-30T03:51:04.180Z,94.30
2017-11-30T03:53:32.336Z,94.30
2017-11-30T03:56:00.470Z,94.20
2017-11-30T03:58:28.630Z,94.30
2017-11-30T04:00:56.759Z,94.30
2017-11-30T04:03:24.912Z,94.40
2017-11-30T04:05:53.055Z,94.70
2017-11-30T04:08:21.210Z,94.50
2017-11-30T04:10:49.349Z,94.40
2017-11-30T04:13:17.514Z,94.40
2017-11-30T04:15:45.648Z,94.40
2017-11-30T04:18:13.778Z,94.40
2017-11-30T04:20:41.930Z,94.50
2017-11-30T04:23:10.060Z,94.50
2017-11-30T04:25:38.219Z,94.50
2017-11-30T04:28:06.348Z,94.50
2017-11-30T04:30:34.498Z,94.50
2017-11-30T04:33:02.637Z,94.50
2017-11-30T04:35:31.566Z,94.60
2017-11-30T04:37:59.703Z,94.50
2017-11-30T04:40:28.623Z,94.60
2017-11-30T04:42:56.774Z,94.50
2017-11-30T04:45:24.939Z,94.60
2017-11-30T04:47:53.061Z,94.60
2017-11-30T04:50:21.216Z,94.60
2017-11-30T04:52:49.338Z,94.60
2017-11-30T04:55:17.502Z,94.70
2017-11-30T04:57:45.633Z,94.70
2017-11-30T05:00:13.787Z,94.70
2017-11-30T05:02:41.919Z,94.70
2017-11-30T05:05:10.072Z,94.70
2017-11-30T05:07:38.209Z,94.70
2017-11-30T05:10:06.400Z,94.70
2017-11-30T05:12:34.532Z,95.10
2017-11-30T05:15:02.690Z,94.80
2017-11-30T05:17:30.822Z,94.80
2017-11-30T05:19:58.980Z,94.80
2017-11-30T05:22:27.105Z,94.80
2017-11-30T05:24:55.235Z,94.80
2017-11-30T05:27:23.393Z,94.80
2017-11-30T05:29:51.519Z,94.80
2017-11-30T05:32:19.674Z,94.80
2017-11-30T05:34:47.806Z,94.80
2017-11-30T05:37:16.740Z,94.90
2017-11-30T05:39:44.867Z,94.80
2017-11-30T05:42:13.794Z,94.80
2017-11-30T05:44:41.920Z,94.80
2017-11-30T05:47:10.080Z,94.90
2017-11-30T05:49:38.202Z,94.90
2017-11-30T05:52:06.366Z,94.90
2017-11-30T05:54:34.498Z,94.90
2017-11-30T05:57:02.659Z,94.90
2017-11-30T05:59:30.786Z,94.90
2017-11-30T06:01:58.953Z,95.00
2017-11-30T06:04:27.087Z,95.00
2017-11-30T06:06:55.242Z,95.00
2017-11-30T06:09:23.386Z,95.00
2017-11-30T06:11:51.555Z,95.00
2017-11-30T06:14:19.699Z,95.10
2017-11-30T06:16:47.864Z,95.10
2017-11-30T06:19:15.991Z,95.10
2017-11-30T06:21:44.144Z,95.10
2017-11-30T06:24:12.291Z,95.10
2017-11-30T06:26:40.459Z,95.10
2017-11-30T06:29:08.588Z,95.20
2017-11-30T06:31:36.754Z,95.20
2017-11-30T06:34:04.903Z,95.20
2017-11-30T06:36:33.794Z,95.20
2017-11-30T06:39:01.947Z,95.20
2017-11-30T06:41:30.089Z,95.20
2017-11-30T06:43:58.256Z,95.20
2017-11-30T06:46:26.395Z,95.20
2017-11-30T06:48:54.555Z,95.20
2017-11-30T06:51:23.445Z,95.60
2017-11-30T06:53:51.604Z,95.20
2017-11-30T06:56:19.734Z,95.30
2017-11-30T06:58:47.900Z,95.30
2017-11-30T07:01:16.038Z,95.30
2017-11-30T07:03:44.195Z,95.40
2017-11-30T07:06:12.327Z,95.40
2017-11-30T07:08:40.487Z,95.40
2017-11-30T07:11:08.619Z,95.40
2017-11-30T07:13:36.775Z,95.50
2017-11-30T07:16:04.898Z,95.50
2017-11-30T07:18:33.050Z,95.50
2017-11-30T07:21:01.187Z,95.50
2017-11-30T07:23:29.354Z,95.50
2017-11-30T07:25:57.491Z,95.50
2017-11-30T07:28:25.622Z,95.60
2017-11-30T07:30:53.776Z,95.60
2017-11-30T07:33:21.906Z,95.70
2017-11-30T07:35:50.071Z,95.70
2017-11-30T07:38:18.968Z,95.80
2017-11-30T07:40:47.145Z,95.80
2017-11-30T07:43:16.053Z,95.90
2017-11-30T07:45:44.215Z,95.90
2017-11-30T07:48:12.351Z,96.00
2017-11-30T07:50:40.503Z,96.00
2017-11-30T07:53:09.040Z,96.00
2017-11-30T07:55:37.955Z,96.10
2017-11-30T07:58:06.095Z,96.10
2017-11-30T08:00:35.028Z,96.10
2017-11-30T08:03:03.164Z,96.10
2017-11-30T08:05:32.090Z,96.20
2017-11-30T08:08:00.236Z,96.20
2017-11-30T08:10:28.389Z,96.20
2017-11-30T08:12:56.514Z,96.20
2017-11-30T08:15:24.684Z,96.20
2017-11-30T08:17:52.818Z,96.20
2017-11-30T08:20:21.751Z,96.10
2017-11-30T08:22:49.889Z,96.10
2017-11-30T08:25:18.802Z,96.00
2017-11-30T08:27:46.935Z,96.00
2017-11-30T08:30:15.087Z,95.90
2017-11-30T08:32:43.315Z,95.90
2017-11-30T08:35:11.484Z,95.80
2017-11-30T08:37:39.612Z,95.70
2017-11-30T08:40:07.742Z,95.70
2017-11-30T08:42:36.001Z,95.70
2017-11-30T08:45:04.153Z,95.70
2017-11-30T08:47:33.173Z,95.70
2017-11-30T08:50:01.316Z,95.70
2017-11-30T08:52:29.691Z,95.70
2017-11-30T08:54:57.818Z,95.70
2017-11-30T08:57:26.273Z,96.00
2017-11-30T08:59:55.202Z,96.00
2017-11-30T09:02:23.375Z,95.70
2017-11-30T09:04:51.526Z,95.60
2017-11-30T09:07:19.683Z,95.70
2017-11-30T09:09:47.817Z,95.60
2017-11-30T09:12:15.972Z,95.60
2017-11-30T09:14:44.104Z,95.50
2017-11-30T09:17:12.257Z,95.50
2017-11-30T09:19:40.391Z,95.50
2017-11-30T09:22:08.551Z,95.50
2017-11-30T09:24:36.680Z,95.50
2017-11-30T09:27:04.837Z,95.50
2017-11-30T09:29:32.963Z,95.60
2017-11-30T09:32:01.124Z,95.60
2017-11-30T09:34:29.262Z,95.70
2017-11-30T09:36:57.418Z,95.60
2017-11-30T09:39:25.790Z,95.50
2017-11-30T09:41:53.950Z,95.50
2017-11-30T09:44:22.085Z,95.80
2017-11-30T09:46:51.007Z,95.50
2017-11-30T09:49:19.305Z,95.50
2017-11-30T09:51:47.433Z,95.50
2017-11-30T09:54:15.605Z,95.50
2017-11-30T09:56:44.650Z,95.50
2017-11-30T09:59:12.812Z,95.40
2017-11-30T10:01:41.049Z,95.50
2017-11-30T10:04:09.967Z,95.50
2017-11-30T10:06:38.104Z,95.50
2017-11-30T10:09:07.026Z,95.50
2017-11-30T10:11:35.161Z,95.50
2017-11-30T10:14:04.075Z,95.60
2017-11-30T10:16:32.227Z,95.50
2017-11-30T10:19:01.235Z,95.60
2017-11-30T10:21:30.180Z,95.60
2017-11-30T10:23:58.310Z,95.50
2017-11-30T10:26:26.435Z,95.50
2017-11-30T10:28:54.586Z,95.50
2017-11-30T10:31:22.720Z,95.40
2017-11-30T10:33:51.802Z,95.50
2017-11-30T10:36:20.695Z,95.50
2017-11-30T10:38:48.850Z,95.50
2017-11-30T10:41:16.983Z,95.50
2017-11-30T10:43:45.155Z,95.50
2017-11-30T10:46:13.289Z,95.50
2017-11-30T10:48:41.455Z,95.40
2017-11-30T10:51:10.351Z,95.20
2017-11-30T10:53:38.544Z,95.20
2017-11-30T10:56:06.788Z,95.20
2017-11-30T10:58:34.950Z,95.20
2017-11-30T11:01:03.098Z,95.20
2017-11-30T11:03:31.261Z,95.50
2017-11-30T11:05:59.383Z,95.20
2017-11-30T11:08:27.543Z,95.30
2017-11-30T11:10:55.683Z,95.30
2017-11-30T11:13:23.852Z,95.30
2017-11-30T11:15:51.991Z,95.40
2017-11-30T11:18:20.124Z,95.40
2017-11-30T11:20:48.276Z,95.50
2017-11-30T11:23:16.404Z,95.50
2017-11-30T11:25:44.558Z,95.50
2017-11-30T11:28:12.691Z,95.40
2017-11-30T11:30:40.842Z,95.30
2017-11-30T11:33:08.972Z,95.30
2017-11-30T11:35:37.127Z,95.40
2017-11-30T11:38:05.256Z,95.40
2017-11-30T11:40:33.416Z,95.40
2017-11-30T11:43:02.316Z,95.40
2017-11-30T11:45:30.480Z,95.40
2017-11-30T11:47:59.374Z,95.80
2017-11-30T11:50:27.525Z,95.40
2017-11-30T11:52:55.669Z,95.40
2017-11-30T11:55:23.838Z,95.40
2017-11-30T11:57:51.971Z,95.40
2017-11-30T12:00:20.155Z,95.30
2017-11-30T12:02:49.149Z,95.30
2017-11-30T12:05:17.312Z,95.30
2017-11-30T12:07:45.450Z,95.40
2017-11-30T12:10:13.608Z,95.40
2017-11-30T12:12:42.017Z,95.40
2017-11-30T12:15:10.163Z,95.30
2017-11-30T12:17:38.334Z,95.70
2017-11-30T12:20:06.458Z,95.30
2017-11-30T12:22:34.619Z,95.30
2017-11-30T12:25:02.752Z,95.30
2017-11-30T12:27:30.915Z,95.20
2017-11-30T12:29:59.050Z,95.30
2017-11-30T12:32:27.203Z,95.30
2017-11-30T12:34:55.331Z,95.60
2017-11-30T12:37:23.487Z,95.20
2017-11-30T12:39:51.617Z,95.20
2017-11-30T12:42:20.619Z,95.30
2017-11-30T12:44:48.751Z,95.30
2017-11-30T12:47:16.914Z,95.30
2017-11-30T12:49:45.042Z,95.30
2017-11-30T12:52:13.194Z,95.20
2017-11-30T12:54:41.327Z,95.10
2017-11-30T12:57:09.493Z,95.10
2017-11-30T12:59:37.620Z,95.10
2017-11-30T13:02:05.777Z,95.10
2017-11-30T13:04:33.905Z,95.10
2017-11-30T13:07:02.056Z,95.10
2017-11-30T13:09:30.181Z,95.00
2017-11-30T13:11:58.336Z,95.40
2017-11-30T13:14:26.460Z,95.00
2017-11-30T13:16:54.614Z,94.90
2017-11-30T13:19:22.746Z,94.80
2017-11-30T13:21:50.881Z,94.90
2017-11-30T13:24:19.042Z,95.00
2017-11-30T13:26:47.412Z,95.00
2017-11-30T13:29:15.584Z,95.00
2017-11-30T13:31:43.969Z,95.00
2017-11-30T13:34:12.124Z,94.90
2017-11-30T13:36:40.244Z,95.00
2017-11-30T13:39:08.420Z,94.90
2017-11-30T13:41:36.542Z,94.80
2017-11-30T13:44:04.716Z,94.90
2017-11-30T13:46:32.841Z,94.90
2017-11-30T13:49:00.992Z,94.90
2017-11-30T13:51:29.129Z,95.00
2017-11-30T13:53:57.594Z,95.00
2017-11-30T13:56:25.729Z,95.00
2017-11-30T13:58:53.892Z,95.10
2017-11-30T14:01:22.761Z,95.10
2017-11-30T14:03:50.918Z,95.10
2017-11-30T14:06:19.055Z,95.10
2017-11-30T14:08:47.212Z,95.20
2017-11-30T14:11:15.338Z,95.20
2017-11-30T14:13:43.506Z,95.20
2017-11-30T14:16:11.634Z,95.20
2017-11-30T14:18:39.793Z,95.20
2017-11-30T14:21:07.925Z,95.20
2017-11-30T14:23:36.074Z,95.20
2017-11-30T14:26:04.209Z,95.30
2017-11-30T14:28:32.366Z,95.30
2017-11-30T14:31:00.507Z,95.30
2017-11-30T14:33:29.434Z,95.30
2017-11-30T14:35:57.561Z,95.30
2017-11-30T14:38:26.462Z,95.30
2017-11-30T14:40:54.632Z,95.30
2017-11-30T14:43:23.750Z,95.30
2017-11-30T14:45:51.913Z,95.30
2017-11-30T14:48:20.042Z,95.40
2017-11-30T14:50:48.286Z,95.80
2017-11-30T14:53:16.419Z,95.40
2017-11-30T14:55:44.569Z,95.40
2017-11-30T14:58:12.697Z,95.40
2017-11-30T15:00:41.708Z,95.30
2017-11-30T15:03:09.836Z,95.30
2017-11-30T15:05:37.985Z,95.30
2017-11-30T15:08:06.108Z,95.30
2017-11-30T15:10:34.566Z,95.20
2017-11-30T15:13:03.471Z,95.20
2017-11-30T15:15:31.633Z,95.20
2017-11-30T15:17:59.771Z,95.20
2017-11-30T15:20:27.935Z,95.20
2017-11-30T15:22:56.088Z,95.20
2017-11-30T15:25:24.236Z,95.20
2017-11-30T15:27:52.366Z,95.10
2017-11-30T15:30:20.540Z,95.00
2017-11-30T15:32:48.673Z,95.00
2017-11-30T15:35:16.833Z,95.00
2017-11-30T15:37:44.974Z,95.00
2017-11-30T15:40:13.129Z,95.00
2017-11-30T15:42:41.277Z,95.10
2017-11-30T15:45:09.495Z,95.20
2017-11-30T15:47:37.714Z,95.40
2017-11-30T15:50:05.879Z,95.50
2017-11-30T15:52:34.778Z,95.50
2017-11-30T15:55:03.059Z,95.60
2017-11-30T15:57:31.201Z,95.70
2017-11-30T15:59:59.415Z,95.80
2017-11-30T16:02:27.596Z,95.80
2017-11-30T16:04:55.802Z,95.80
2017-11-30T16:07:25.128Z,95.90
2017-11-30T16:09:54.049Z,95.90
2017-11-30T16:12:22.187Z,95.90
2017-11-30T16:14:51.103Z,95.90
2017-11-30T16:17:19.258Z,95.90
2017-11-30T16:19:47.409Z,95.90
2017-11-30T16:22:15.912Z,95.90
2017-11-30T16:24:44.098Z,96.00
2017-11-30T16:27:13.009Z,96.20
2017-11-30T16:29:41.148Z,96.10
2017-11-30T16:32:09.367Z,96.20
2017-11-30T16:34:37.598Z,96.20
2017-11-30T16:37:06.517Z,96.20
2017-11-30T16:39:34.691Z,96.20
2017-11-30T16:42:02.853Z,96.20
2017-11-30T16:44:30.994Z,96.20
2017-11-30T16:46:59.158Z,96.20
2017-11-30T16:49:27.333Z,96.20
2017-11-30T16:51:55.555Z,96.20
2017-11-30T16:54:23.692Z,96.20
2017-11-30T16:56:52.613Z,96.30
2017-11-30T16:59:20.758Z,96.20
2017-11-30T17:01:49.709Z,96.30
2017-11-30T17:04:17.904Z,96.30
2017-11-30T17:06:46.061Z,96.30
2017-11-30T17:09:14.217Z,96.40
2017-11-30T17:11:42.392Z,96.70
2017-11-30T17:14:10.532Z,96.40
2017-11-30T17:16:38.693Z,96.40
2017-11-30T17:19:06.826Z,96.40
2017-11-30T17:21:35.000Z,96.30
2017-11-30T17:24:03.135Z,96.30
2017-11-30T17:26:31.316Z,96.40
2017-11-30T17:28:59.446Z,96.40
2017-11-30T17:31:27.590Z,96.30
2017-11-30T17:33:55.750Z,96.30
2017-11-30T17:36:24.058Z,96.30
2017-11-30T17:38:52.217Z,96.30
2017-11-30T17:41:20.857Z,96.20
2017-11-30T17:43:49.088Z,96.20
2017-11-30T17:46:17.239Z,96.10
2017-11-30T17:48:45.569Z,96.10
2017-11-30T17:51:14.653Z,96.10
2017-11-30T17:53:42.941Z,96.10
2017-11-30T17:56:11.880Z,96.10
2017-11-30T17:58:40.139Z,96.00
2017-11-30T18:01:08.412Z,96.00
2017-11-30T18:03:36.708Z,96.00
2017-11-30T18:06:04.867Z,96.00
2017-11-30T18:08:33.030Z,96.00
2017-11-30T18:11:01.215Z,96.00
2017-11-30T18:13:29.445Z,96.00
2017-11-30T18:15:57.593Z,95.90
2017-11-30T18:18:25.750Z,96.00
2017-11-30T18:20:53.893Z,96.00
2017-11-30T18:23:22.843Z,95.90
2017-11-30T18:25:51.790Z,95.90
2017-11-30T18:28:19.991Z,95.90
2017-11-30T18:30:48.136Z,95.90
2017-11-30T18:33:16.365Z,95.90
2017-11-30T18:35:44.499Z,95.90
2017-11-30T18:38:12.769Z,95.90
2017-11-30T18:40:40.941Z,95.90
2017-11-30T18:43:09.076Z,95.90
2017-11-30T18:45:37.237Z,95.90
2017-11-30T18:48:05.988Z,96.00
2017-11-30T18:50:34.402Z,96.00
2017-11-30T18:53:02.630Z,96.00
2017-11-30T18:55:30.867Z,96.00
2017-11-30T18:57:59.981Z,96.10
2017-11-30T19:00:28.589Z,96.10
2017-11-30T19:02:56.966Z,96.10
2017-11-30T19:05:25.812Z,96.00
2017-11-30T19:07:54.219Z,96.10
2017-11-30T19:10:22.658Z,96.10
2017-11-30T19:12:52.299Z,96.10
2017-11-30T19:15:27.059Z,96.10
2017-11-30T19:17:58.713Z,96.20
2017-11-30T19:20:28.118Z,96.20
2017-11-30T19:22:56.347Z,96.30
2017-11-30T19:25:27.868Z,96.30
2017-11-30T19:27:56.314Z,96.30
2017-11-30T19:30:26.037Z,96.20
2017-11-30T19:32:54.520Z,96.20
2017-11-30T19:35:23.721Z,96.20
2017-11-30T19:37:52.899Z,96.20
2017-11-30T19:40:21.095Z,96.30
2017-11-30T19:42:49.225Z,96.70
2017-11-30T19:45:17.385Z,96.30
2017-11-30T19:47:45.516Z,96.30
2017-11-30T19:50:13.750Z,96.30
2017-11-30T19:52:41.883Z,96.30
2017-11-30T19:55:10.046Z,96.30
2017-11-30T19:57:38.193Z,96.30
2017-11-30T20:00:06.552Z,96.30
2017-11-30T20:02:35.544Z,96.30
2017-11-30T20:05:05.663Z,96.30
2017-11-30T20:07:33.905Z,96.30
2017-11-30T20:10:02.083Z,96.30
2017-11-30T20:12:30.204Z,96.30
2017-11-30T20:14:58.354Z,96.30
2017-11-30T20:17:27.249Z,96.40
2017-11-30T20:19:55.420Z,96.30
2017-11-30T20:22:24.485Z,96.30
2017-11-30T20:24:52.868Z,96.30
2017-11-30T20:27:21.114Z,96.30
2017-11-30T20:29:49.544Z,96.40
2017-11-30T20:32:18.584Z,96.40
2017-11-30T20:34:46.881Z,96.40
2017-11-30T20:37:15.122Z,96.40
2017-11-30T20:39:43.281Z,96.40
2017-11-30T20:42:11.433Z,96.40
2017-11-30T20:44:40.357Z,96.50
2017-11-30T20:47:08.536Z,96.40
2017-11-30T20:49:36.674Z,96.40
2017-11-30T20:52:04.857Z,96.50
2017-11-30T20:54:33.003Z,96.40
2017-11-30T20:57:01.194Z,96.40
2017-11-30T20:59:29.328Z,96.50
2017-11-30T21:01:57.522Z,96.50
2017-11-30T21:04:25.649Z,96.50
2017-11-30T21:06:53.833Z,96.50
2017-11-30T21:09:21.961Z,96.50
2017-11-30T21:11:50.141Z,96.60
2017-11-30T21:14:19.073Z,96.70
2017-11-30T21:16:47.221Z,96.60
2017-11-30T21:19:15.354Z,96.70
2017-11-30T21:21:43.526Z,96.70
2017-11-30T21:24:11.684Z,96.70
2017-11-30T21:26:39.839Z,96.80
2017-11-30T21:29:08.016Z,96.80
2017-11-30T21:31:36.145Z,96.90
2017-11-30T21:34:04.336Z,96.90
2017-11-30T21:36:32.479Z,96.90
2017-11-30T21:39:00.647Z,96.90
2017-11-30T21:41:28.770Z,96.90
2017-11-30T21:43:56.925Z,96.90
2017-11-30T21:46:25.065Z,96.90
2017-11-30T21:48:53.265Z,96.80
2017-11-30T21:51:21.405Z,96.80
2017-11-30T21:53:49.582Z,96.80
2017-11-30T21:56:17.718Z,96.80
2017-11-30T21:58:45.878Z,96.80
2017-11-30T22:01:14.001Z,96.80
2017-11-30T22:03:42.152Z,96.80
2017-11-30T22:06:10.282Z,96.80
2017-11-30T22:08:39.201Z,96.80
2017-11-30T22:11:07.321Z,96.80
2017-11-30T22:13:35.483Z,96.80
2017-11-30T22:16:03.610Z,96.80
2017-11-30T22:18:31.766Z,96.80
2017-11-30T22:21:00.665Z,96.80
2017-11-30T22:23:28.821Z,96.80
2017-11-30T22:25:57.725Z,96.80
2017-11-30T22:28:25.877Z,96.80
2017-11-30T22:30:54.807Z,96.70
2017-11-30T22:33:23.044Z,96.60
2017-11-30T22:35:51.183Z,96.60
2017-11-30T22:38:19.351Z,96.60
2017-11-30T22:40:47.485Z,96.60
2017-11-30T22:43:15.638Z,96.60
2017-11-30T22:45:43.767Z,96.50
2017-11-30T22:48:11.941Z,96.50
2017-11-30T22:50:40.075Z,96.50
2017-11-30T22:53:08.970Z,96.50
2017-11-30T22:55:37.122Z,96.50
2017-11-30T22:58:06.027Z,96.60
2017-11-30T23:00:42.041Z,96.50
2017-11-30T23:03:10.177Z,96.50
2017-11-30T23:05:38.341Z,96.50
2017-11-30T23:08:06.476Z,96.50
2017-11-30T23:10:34.643Z,96.50
2017-11-30T23:13:02.794Z,96.50
2017-11-30T23:15:30.948Z,96.50
2017-11-30T23:17:59.082Z,96.50
2017-11-30T23:20:27.238Z,96.50
2017-11-30T23:22:55.398Z,96.50
2017-11-30T23:25:23.555Z,96.50
2017-11-30T23:27:51.789Z,96.50
2017-11-30T23:30:19.951Z,96.50
2017-11-30T23:32:48.100Z,96.50
2017-11-30T23:35:16.254Z,96.50
2017-11-30T23:37:44.387Z,96.50
2017-11-30T23:40:12.542Z,96.90
2017-11-30T23:42:40.669Z,96.50
2017-11-30T23:45:08.834Z,96.40
2017-11-30T23:47:37.820Z,96.50
2017-11-30T23:50:05.981Z,96.50
2017-11-30T23:52:34.117Z,96.50
2017-11-30T23:55:02.267Z,96.50
2017-11-30T23:57:30.390Z,96.50
2017-11-30T23:59:58.542Z,96.50
